Time;durP1;ratioP1;P1;durP2;ratioP2;P2;SDS_P1;SDS_P2;PMS_P1;PMS_P2;Temp;Humidity;BMP_temperature;BMP_pressure;BME280_temperature;BME280_humidity;BME280_pressure;Samples;Min_cycle;Max_cycle;Signal;HPM_P1;HPM_P2
2021/12/31 00:00:32;;;;;;;33.22;10.70;;;;;;;5.86;80.91;101448.53;4981908;28;20038;-82
2021/12/31 00:02:57;;;;;;;30.45;12.15;;;;;;;5.86;80.71;101449.41;4980919;28;20034;-81
2021/12/31 00:05:23;;;;;;;20.42;11.52;;;;;;;5.98;80.28;101439.94;4989129;28;20034;-80
2021/12/31 00:07:49;;;;;;;18.33;10.23;;;;;;;6.09;80.73;101447.38;5000678;28;20530;-82
2021/12/31 00:10:14;;;;;;;11.93;9.60;;;;;;;6.07;80.62;101454.63;4986511;28;20118;-83
2021/12/31 00:12:42;;;;;;;17.60;9.98;;;;;;;6.07;79.78;101458.16;4981159;28;20182;-79
2021/12/31 00:15:09;;;;;;;26.85;13.77;;;;;;;5.98;79.93;101455.94;4979614;28;20437;-82
2021/12/31 00:17:34;;;;;;;22.20;13.80;;;;;;;5.87;79.35;101458.28;4980530;28;20026;-82
2021/12/31 00:20:07;;;;;;;17.38;11.60;;;;;;;5.89;79.58;101457.28;4979692;28;20035;-83
2021/12/31 00:25:02;;;;;;;24.42;11.27;;;;;;;6.02;79.65;101465.53;4998347;28;20022;-86
2021/12/31 00:27:29;;;;;;;17.85;10.40;;;;;;;6.09;79.79;101447.38;4998647;28;20101;-83
2021/12/31 00:29:55;;;;;;;21.23;12.15;;;;;;;6.11;79.25;101451.75;5000484;28;20472;-84
2021/12/31 00:32:21;;;;;;;15.23;11.02;;;;;;;6.13;79.25;101449.84;5002102;28;20037;-84
2021/12/31 00:34:46;;;;;;;16.23;11.02;;;;;;;6.17;78.83;101451.44;5011317;28;20080;-87
2021/12/31 00:37:13;;;;;;;15.02;10.32;;;;;;;6.16;78.51;101448.81;4998795;28;20034;-87
2021/12/31 00:39:38;;;;;;;17.42;11.27;;;;;;;6.22;78.30;101444.03;4998691;28;20023;-81
2021/12/31 00:42:04;;;;;;;21.13;11.70;;;;;;;6.26;78.40;101450.97;5001787;28;20405;-81
2021/12/31 00:44:30;;;;;;;15.10;11.13;;;;;;;6.28;78.35;101449.06;5000316;28;20030;-83
2021/12/31 00:46:55;;;;;;;21.70;12.15;;;;;;;6.27;78.42;101436.66;4997581;28;20030;-82
2021/12/31 00:49:21;;;;;;;17.20;12.07;;;;;;;6.31;78.05;101440.03;4998066;28;20437;-82
2021/12/31 00:51:46;;;;;;;15.38;10.13;;;;;;;6.29;77.73;101436.59;4979054;28;20085;-85
2021/12/31 00:54:12;;;;;;;21.60;10.25;;;;;;;6.30;77.46;101432.97;4978112;28;20193;-82
2021/12/31 00:56:37;;;;;;;11.50;8.85;;;;;;;6.28;76.83;101425.03;4976673;28;20030;-83
2021/12/31 00:59:03;;;;;;;15.30;10.23;;;;;;;6.36;76.69;101440.69;4976848;28;20035;-83
2021/12/31 01:01:31;;;;;;;12.73;9.43;;;;;;;6.34;76.91;101424.72;4978619;28;20026;-82
2021/12/31 01:03:56;;;;;;;13.70;9.30;;;;;;;6.22;76.56;101424.47;4977360;28;20110;-82
2021/12/31 01:06:22;;;;;;;13.18;9.38;;;;;;;6.22;76.61;101411.13;4994437;28;20101;-81
2021/12/31 01:08:47;;;;;;;12.40;9.55;;;;;;;6.12;76.81;101405.38;4998076;28;20022;-82
2021/12/31 01:11:13;;;;;;;19.58;10.55;;;;;;;6.10;76.71;101401.94;4996516;28;20030;-82
2021/12/31 01:16:40;;;;;;;16.25;11.63;;;;;;;6.18;77.16;101421.09;4983442;28;20048;-83
2021/12/31 01:21:33;;;;;;;18.80;12.45;;;;;;;5.95;76.83;101410.72;4996076;28;20917;-83
2021/12/31 01:24:01;;;;;;;18.08;12.57;;;;;;;5.94;76.93;101425.84;4996562;28;20030;-84
2021/12/31 01:26:27;;;;;;;17.15;11.38;;;;;;;5.96;77.49;101421.28;4997006;28;20053;-83
2021/12/31 01:28:53;;;;;;;19.05;11.63;;;;;;;5.97;77.51;101419.50;4983962;28;20030;-83
2021/12/31 01:31:19;;;;;;;25.52;12.85;;;;;;;5.96;77.63;101429.31;4984828;28;20042;-82
2021/12/31 01:33:45;;;;;;;18.20;12.68;;;;;;;5.91;77.45;101419.81;4986017;28;20023;-82
2021/12/31 01:36:10;;;;;;;28.40;13.32;;;;;;;5.87;77.86;101418.25;4987364;28;20063;-82
2021/12/31 01:38:36;;;;;;;17.27;12.15;;;;;;;5.75;77.79;101405.47;4991406;28;20030;-83
2021/12/31 01:41:02;;;;;;;20.02;13.32;;;;;;;5.81;78.10;101399.81;4999275;28;20034;-82
2021/12/31 01:43:27;;;;;;;22.00;14.93;;;;;;;5.84;78.41;101410.34;4997721;28;20508;-84
2021/12/31 01:45:55;;;;;;;19.02;13.32;;;;;;;5.88;78.91;101406.59;4982013;28;20030;-83
2021/12/31 01:48:33;;;;;;;19.83;13.15;;;;;;;5.77;78.81;101406.25;4996225;28;20136;-83
2021/12/31 01:50:59;;;;;;;19.38;12.77;;;;;;;5.81;78.87;101391.81;4996003;28;20030;-83
2021/12/31 01:53:26;;;;;;;19.08;13.13;;;;;;;5.85;78.75;101385.38;4996181;28;20078;-83
2021/12/31 01:55:56;;;;;;;21.92;13.20;;;;;;;5.86;78.48;101373.78;4996044;28;20530;-83
2021/12/31 01:58:23;;;;;;;18.10;12.80;;;;;;;5.93;78.95;101375.22;4994657;28;20105;-83
2021/12/31 02:00:49;;;;;;;20.48;12.50;;;;;;;5.84;78.54;101383.66;4982305;28;20173;-83
2021/12/31 02:03:18;;;;;;;29.65;13.88;;;;;;;5.89;78.47;101385.19;4982294;28;20058;-84
2021/12/31 02:05:43;;;;;;;18.52;12.05;;;;;;;5.86;78.01;101371.13;4976851;28;20035;-83
2021/12/31 02:08:09;;;;;;;16.58;11.90;;;;;;;5.85;77.88;101374.69;4988389;28;20033;-83
2021/12/31 02:10:34;;;;;;;17.55;11.63;;;;;;;5.78;77.11;101370.63;4997397;28;20372;-83
2021/12/31 02:13:00;;;;;;;19.20;12.75;;;;;;;5.76;76.96;101364.47;4979369;28;20055;-83
2021/12/31 02:15:26;;;;;;;20.63;12.38;;;;;;;5.71;77.12;101366.53;4977713;28;20031;-83
2021/12/31 02:17:53;;;;;;;16.98;12.63;;;;;;;5.71;77.42;101364.72;4976584;28;20035;-83
2021/12/31 02:20:20;;;;;;;20.00;12.93;;;;;;;5.73;77.64;101367.28;4976421;28;20027;-83
2021/12/31 02:22:55;;;;;;;21.50;12.45;;;;;;;5.67;77.15;101371.13;4976265;28;20061;-83
2021/12/31 02:25:24;;;;;;;20.23;12.80;;;;;;;5.72;77.78;101385.09;4976379;28;20026;-84
2021/12/31 02:27:50;;;;;;;18.38;12.23;;;;;;;5.76;77.69;101392.03;4975596;28;20027;-84
2021/12/31 02:30:20;;;;;;;22.77;13.32;;;;;;;5.77;77.83;101392.91;4990267;28;20406;-85
2021/12/31 02:32:46;;;;;;;18.60;12.55;;;;;;;5.80;77.82;101382.06;4995518;28;20109;-84
2021/12/31 02:35:12;;;;;;;19.88;13.40;;;;;;;5.81;77.77;101378.47;4979357;28;20058;-84
2021/12/31 02:37:37;;;;;;;18.58;12.25;;;;;;;5.75;77.52;101381.44;4976046;28;20086;-85
2021/12/31 02:40:05;;;;;;;18.33;12.20;;;;;;;5.76;77.46;101400.03;4976334;28;20038;-84
2021/12/31 02:42:31;;;;;;;28.20;13.20;;;;;;;5.81;77.61;101399.81;4976555;28;20077;-84
2021/12/31 02:44:57;;;;;;;21.13;12.32;;;;;;;5.89;77.34;101390.53;4983245;28;20023;-81
2021/12/31 02:47:22;;;;;;;16.63;11.30;;;;;;;5.87;77.27;101380.88;4979517;28;20446;-85
2021/12/31 02:49:50;;;;;;;18.95;11.88;;;;;;;5.89;76.89;101387.84;4975425;28;20053;-83
2021/12/31 02:52:18;;;;;;;17.98;12.13;;;;;;;5.93;76.82;101399.25;4975844;28;20057;-85
2021/12/31 02:54:47;;;;;;;16.98;10.43;;;;;;;5.96;76.99;101394.59;4975926;28;20031;-85
2021/12/31 02:57:14;;;;;;;17.90;12.80;;;;;;;6.04;77.32;101412.91;4975966;28;20031;-84
2021/12/31 02:59:40;;;;;;;17.40;11.15;;;;;;;5.96;76.84;101404.44;4983694;28;20030;-85
2021/12/31 03:02:06;;;;;;;20.35;12.07;;;;;;;5.96;76.60;101404.44;4995243;28;20030;-84
2021/12/31 03:04:39;;;;;;;17.60;13.10;;;;;;;5.96;77.02;101405.28;4995144;28;20062;-83
2021/12/31 03:07:06;;;;;;;20.88;12.50;;;;;;;6.02;77.51;101410.31;4994624;28;20480;-83
2021/12/31 03:09:34;;;;;;;23.73;13.50;;;;;;;6.01;77.10;101431.75;4993841;28;20041;-84
2021/12/31 03:12:00;;;;;;;26.90;12.82;;;;;;;6.03;77.18;101435.22;4995032;28;20023;-83
2021/12/31 03:14:29;;;;;;;18.77;11.85;;;;;;;6.10;77.15;101431.31;4994563;28;20035;-82
2021/12/31 03:16:54;;;;;;;15.60;10.65;;;;;;;6.14;76.95;101424.88;4994347;28;20050;-82
2021/12/31 03:19:21;;;;;;;18.60;12.25;;;;;;;6.09;76.73;101434.91;4994003;28;20022;-82
2021/12/31 03:21:46;;;;;;;14.77;10.18;;;;;;;6.03;76.86;101425.41;4995015;28;20113;-84
2021/12/31 03:24:12;;;;;;;16.33;10.93;;;;;;;5.93;76.70;101409.94;4996595;28;20428;-83
2021/12/31 03:26:38;;;;;;;17.63;11.70;;;;;;;5.87;76.80;101420.91;4996220;28;20027;-83
2021/12/31 03:29:04;;;;;;;16.17;10.90;;;;;;;5.93;77.27;101417.94;4996329;28;20025;-84
2021/12/31 03:31:29;;;;;;;18.05;11.93;;;;;;;5.95;77.85;101410.72;4994758;28;20475;-84
2021/12/31 03:33:54;;;;;;;16.58;11.48;;;;;;;5.91;77.82;101414.47;4995035;28;20022;-83
2021/12/31 03:36:20;;;;;;;18.85;12.75;;;;;;;5.91;77.36;101422.47;4996004;28;20022;-83
2021/12/31 03:38:45;;;;;;;16.27;11.20;;;;;;;5.98;77.43;101421.25;4987540;28;20027;-82
2021/12/31 03:41:11;;;;;;;24.83;12.27;;;;;;;6.08;77.04;101414.50;4982934;28;20031;-84
2021/12/31 03:43:37;;;;;;;15.60;11.07;;;;;;;6.13;77.43;101417.78;4972716;28;20035;-83
2021/12/31 03:46:02;;;;;;;20.15;11.50;;;;;;;6.16;77.36;101417.63;4993794;28;20041;-82
2021/12/31 03:48:28;;;;;;;16.70;11.63;;;;;;;6.15;76.80;101426.59;4981839;28;20130;-83
2021/12/31 03:50:54;;;;;;;16.52;10.45;;;;;;;6.15;77.42;101426.59;4976328;28;20428;-83
2021/12/31 03:53:20;;;;;;;15.93;11.18;;;;;;;6.17;76.95;101434.53;4991639;28;20030;-84
2021/12/31 03:55:46;;;;;;;16.83;11.82;;;;;;;6.15;77.21;101428.38;4997611;28;20027;-84
2021/12/31 03:58:11;;;;;;;15.43;10.57;;;;;;;6.05;77.36;101424.47;4997376;28;20033;-83
2021/12/31 04:00:37;;;;;;;23.30;14.85;;;;;;;5.98;77.42;101432.78;4997948;28;20030;-83
2021/12/31 04:03:07;;;;;;;19.42;13.30;;;;;;;5.85;77.96;101425.41;4998927;28;20038;-84
2021/12/31 04:05:35;;;;;;;19.83;13.48;;;;;;;5.88;78.23;101430.63;4997896;28;20022;-84
2021/12/31 04:08:01;;;;;;;22.63;13.38;;;;;;;6.00;78.51;101432.69;4998031;28;20057;-84
2021/12/31 04:10:28;;;;;;;22.27;14.55;;;;;;;6.07;78.77;101444.81;4998255;28;20019;-84
2021/12/31 04:12:54;;;;;;;20.25;13.05;;;;;;;6.12;78.95;101440.09;4998107;28;20498;-84
2021/12/31 04:15:19;;;;;;;24.13;14.73;;;;;;;6.21;78.80;101436.97;5002137;28;20018;-83
2021/12/31 04:17:45;;;;;;;20.40;13.02;;;;;;;6.15;78.66;101426.59;4995138;28;20031;-83
2021/12/31 04:20:18;;;;;;;24.08;13.27;;;;;;;6.22;78.19;101440.50;4979148;28;20026;-83
2021/12/31 04:22:51;;;;;;;25.45;16.67;;;;;;;6.23;78.06;101429.75;4979607;28;20038;-84
2021/12/31 04:25:17;;;;;;;29.80;14.05;;;;;;;6.13;77.38;101424.94;5003068;28;20037;-83
2021/12/31 04:27:42;;;;;;;21.60;13.68;;;;;;;6.22;77.26;101438.69;4998666;28;20035;-82
2021/12/31 04:30:08;;;;;;;28.48;14.30;;;;;;;6.26;77.48;101440.28;4997743;28;20030;-85
2021/12/31 04:32:34;;;;;;;20.73;12.23;;;;;;;6.28;77.21;101442.84;4997607;28;20085;-85
2021/12/31 04:34:59;;;;;;;22.35;14.50;;;;;;;6.22;77.30;101454.72;4997950;28;20022;-83
2021/12/31 04:37:25;;;;;;;23.55;14.18;;;;;;;6.17;77.58;101450.56;4997526;28;20037;-85
2021/12/31 04:39:50;;;;;;;22.98;14.80;;;;;;;6.08;77.49;101451.88;4998476;28;20022;-84
2021/12/31 04:42:16;;;;;;;26.92;18.00;;;;;;;5.94;77.96;101443.69;4995033;28;20451;-82
2021/12/31 04:44:41;;;;;;;21.50;13.15;;;;;;;5.84;78.29;101447.72;4978568;28;20050;-80
2021/12/31 04:47:07;;;;;;;34.90;19.63;;;;;;;5.81;78.87;101450.53;4978356;28;20040;-83
2021/12/31 04:49:32;;;;;;;28.40;15.00;;;;;;;5.71;79.20;101451.91;4983190;28;20413;-85
2021/12/31 04:51:58;;;;;;;24.80;15.10;;;;;;;5.64;79.19;101453.13;4980661;28;20030;-85
2021/12/31 04:54:23;;;;;;;24.60;15.90;;;;;;;5.60;79.33;101465.75;4978619;28;20449;-85
2021/12/31 04:56:52;;;;;;;20.17;13.85;;;;;;;5.55;79.35;101477.59;4980820;28;20421;-85
2021/12/31 04:59:18;;;;;;;23.05;12.55;;;;;;;5.52;79.40;101477.75;4980071;28;20022;-85
2021/12/31 05:01:44;;;;;;;21.58;13.70;;;;;;;5.54;79.74;101475.84;4978172;28;20033;-84
2021/12/31 05:04:09;;;;;;;19.02;12.63;;;;;;;5.58;80.37;101486.31;4960442;28;20062;-84
2021/12/31 05:06:37;;;;;;;22.55;13.50;;;;;;;5.64;80.65;101487.84;4960352;28;20043;-84
2021/12/31 05:09:03;;;;;;;40.80;13.35;;;;;;;5.68;80.67;101484.09;4980430;28;20023;-84
2021/12/31 05:11:28;;;;;;;29.48;14.23;;;;;;;5.72;80.29;101475.00;4985980;28;20069;-85
2021/12/31 05:13:53;;;;;;;26.63;14.80;;;;;;;5.83;80.63;101472.69;4982968;28;20385;-83
2021/12/31 05:16:19;;;;;;;21.67;12.80;;;;;;;5.89;80.34;101473.28;4959396;28;20031;-84
2021/12/31 05:18:44;;;;;;;33.05;13.68;;;;;;;6.05;80.14;101477.88;4977022;28;20023;-82
2021/12/31 05:21:10;;;;;;;18.45;12.63;;;;;;;6.03;79.74;101472.59;4977237;28;20023;-81
2021/12/31 05:23:35;;;;;;;18.92;12.98;;;;;;;6.02;79.59;101470.88;4995979;28;20022;-81
2021/12/31 05:26:01;;;;;;;30.38;17.05;;;;;;;6.10;79.70;101482.03;5001126;28;20021;-83
2021/12/31 05:28:26;;;;;;;33.70;14.95;;;;;;;6.02;79.21;101482.41;4996334;28;20029;-83
2021/12/31 05:30:52;;;;;;;24.70;15.07;;;;;;;6.05;79.46;101489.44;4996209;28;20033;-82
2021/12/31 05:33:17;;;;;;;25.13;15.57;;;;;;;6.07;79.03;101482.19;4995974;28;20058;-83
2021/12/31 05:35:43;;;;;;;26.50;15.77;;;;;;;6.05;78.55;101484.09;4996424;28;20050;-83
2021/12/31 05:38:08;;;;;;;21.35;14.88;;;;;;;5.99;78.71;101474.53;4996220;28;20019;-83
2021/12/31 05:40:34;;;;;;;25.35;15.18;;;;;;;5.93;79.24;101474.00;4996769;28;20026;-83
2021/12/31 05:43:00;;;;;;;26.98;16.15;;;;;;;5.98;79.74;101471.97;4997276;28;20034;-82
2021/12/31 05:45:26;;;;;;;32.72;19.15;;;;;;;5.89;79.78;101467.06;4998852;28;20057;-82
2021/12/31 05:47:52;;;;;;;29.05;18.02;;;;;;;5.98;79.73;101467.50;4998746;28;20033;-82
2021/12/31 05:50:29;;;;;;;52.20;19.33;;;;;;;5.97;79.17;101470.22;4996359;28;20046;-81
2021/12/31 05:52:59;;;;;;;30.10;16.15;;;;;;;6.05;79.32;101477.88;4996776;28;20061;-83
2021/12/31 05:55:26;;;;;;;26.02;15.13;;;;;;;5.95;79.68;101464.09;4995406;28;20034;-82
2021/12/31 05:57:51;;;;;;;23.95;14.90;;;;;;;5.88;79.60;101470.66;4996046;28;20030;-82
2021/12/31 06:00:18;;;;;;;24.08;14.77;;;;;;;5.81;79.84;101477.25;4996010;28;20234;-82
2021/12/31 06:02:43;;;;;;;29.48;16.30;;;;;;;5.77;79.96;101464.97;4995935;28;20396;-81
2021/12/31 06:05:09;;;;;;;27.38;16.05;;;;;;;5.84;80.28;101474.41;4998318;28;20026;-81
2021/12/31 06:07:35;;;;;;;26.73;16.98;;;;;;;5.88;80.49;101462.66;4987084;28;20037;-82
2021/12/31 06:10:00;;;;;;;59.47;18.48;;;;;;;5.88;80.80;101466.22;4996483;28;20015;-83
2021/12/31 06:12:26;;;;;;;26.63;16.83;;;;;;;6.02;80.85;101477.06;4996162;28;20105;-82
2021/12/31 06:14:54;;;;;;;25.38;17.08;;;;;;;6.02;80.82;101457.53;4994880;28;20053;-81
2021/12/31 06:17:25;;;;;;;28.33;17.08;;;;;;;6.06;80.78;101466.22;4995807;28;20025;-81
2021/12/31 06:19:50;;;;;;;25.88;15.98;;;;;;;6.14;80.94;101472.94;4995362;28;20579;-81
2021/12/31 06:22:16;;;;;;;25.38;16.27;;;;;;;6.13;80.36;101465.00;4994900;28;20034;-82
2021/12/31 06:24:42;;;;;;;27.60;16.48;;;;;;;6.22;80.41;101480.56;4995106;28;20483;-81
2021/12/31 06:27:08;;;;;;;33.60;20.23;;;;;;;6.20;80.44;101483.31;4994297;28;20018;-81
2021/12/31 06:29:34;;;;;;;33.50;17.75;;;;;;;6.29;80.47;101482.88;4994591;28;20476;-82
2021/12/31 06:31:59;;;;;;;28.42;17.13;;;;;;;6.36;80.25;101478.09;4994509;28;20085;-81
2021/12/31 06:34:25;;;;;;;30.20;19.20;;;;;;;6.36;80.19;101484.28;4995661;28;20018;-83
2021/12/31 06:36:50;;;;;;;23.73;16.20;;;;;;;6.38;80.15;101470.84;4994967;28;20073;-81
2021/12/31 06:39:16;;;;;;;29.00;17.20;;;;;;;6.43;80.49;101463.44;4994391;28;20018;-82
2021/12/31 06:41:41;;;;;;;28.08;15.57;;;;;;;6.45;80.52;101483.81;4994559;28;20030;-82
2021/12/31 06:44:07;;;;;;;33.42;17.38;;;;;;;6.43;80.62;101480.34;4994249;28;20057;-81
2021/12/31 06:46:32;;;;;;;31.38;17.65;;;;;;;6.52;80.34;101482.56;4995765;28;20041;-80
2021/12/31 06:48:58;;;;;;;39.60;20.60;;;;;;;6.53;80.58;101476.28;4994494;28;20049;-81
2021/12/31 06:51:23;;;;;;;34.55;18.17;;;;;;;6.50;80.27;101489.81;4994601;28;20042;-82
2021/12/31 06:53:49;;;;;;;26.10;16.35;;;;;;;6.53;79.80;101492.31;4995161;28;20068;-81
2021/12/31 06:56:14;;;;;;;35.03;18.48;;;;;;;6.40;80.07;101501.03;4997064;28;20484;-81
2021/12/31 06:58:40;;;;;;;52.38;26.23;;;;;;;6.53;80.30;101518.16;4994064;28;20588;-83
2021/12/31 07:01:05;;;;;;;41.20;23.20;;;;;;;6.48;80.68;101489.00;4999699;28;20090;-82
2021/12/31 07:03:31;;;;;;;47.58;22.85;;;;;;;6.56;80.55;101494.84;5003626;28;20033;-81
2021/12/31 07:05:57;;;;;;;32.40;17.58;;;;;;;6.54;80.23;101493.19;4994234;28;20033;-81
2021/12/31 07:08:23;;;;;;;22.67;14.32;;;;;;;6.54;80.12;101487.84;4994372;28;20038;-82
2021/12/31 07:10:48;;;;;;;23.40;14.70;;;;;;;6.46;80.60;101480.19;4994581;28;20493;-82
2021/12/31 07:13:14;;;;;;;22.73;14.85;;;;;;;6.42;80.50;101483.97;4995669;28;20034;-82
2021/12/31 07:15:44;;;;;;;27.55;14.57;;;;;;;6.50;80.50;101481.78;4995189;28;20022;-82
2021/12/31 07:18:11;;;;;;;26.55;14.85;;;;;;;6.50;80.73;101481.78;4994836;28;20023;-81
2021/12/31 07:20:45;;;;;;;25.65;17.60;;;;;;;6.41;80.81;101478.72;4995113;28;20023;-82
2021/12/31 07:23:12;;;;;;;25.80;15.30;;;;;;;6.60;81.32;101487.53;4978137;28;20030;-82
2021/12/31 07:25:39;;;;;;;21.65;14.60;;;;;;;6.69;81.24;101486.19;4999103;28;20030;-81
2021/12/31 07:28:06;;;;;;;24.00;14.75;;;;;;;6.78;80.99;101485.72;4999413;28;20026;-80
2021/12/31 07:30:31;;;;;;;23.33;13.93;;;;;;;6.84;81.11;101488.06;4998730;28;20048;-80
2021/12/31 07:32:57;;;;;;;27.20;15.00;;;;;;;6.99;80.75;101489.94;4998105;28;20109;-81
2021/12/31 07:35:23;;;;;;;27.05;16.98;;;;;;;7.07;80.85;101488.56;4997863;28;20034;-81
2021/12/31 07:37:52;;;;;;;29.83;18.13;;;;;;;7.13;80.12;101482.03;4998542;28;20057;-81
2021/12/31 07:40:25;;;;;;;28.90;14.55;;;;;;;7.15;80.36;101472.13;4998382;28;20022;-81
2021/12/31 07:42:51;;;;;;;25.73;15.98;;;;;;;7.22;79.66;101468.16;4999162;28;20015;-81
2021/12/31 07:45:16;;;;;;;25.80;15.32;;;;;;;7.33;79.27;101473.81;4983001;28;20033;-80
2021/12/31 07:47:42;;;;;;;25.38;15.55;;;;;;;7.29;79.45;101476.72;5000341;28;20026;-81
2021/12/31 07:50:07;;;;;;;26.92;15.63;;;;;;;7.38;79.18;101482.44;4998608;28;20045;-82
2021/12/31 07:52:34;;;;;;;27.08;15.82;;;;;;;7.27;78.76;101479.50;4998193;28;20101;-83
2021/12/31 07:55:00;;;;;;;32.67;17.90;;;;;;;7.36;79.42;101479.00;4998446;28;20018;-82
2021/12/31 07:57:25;;;;;;;26.65;15.77;;;;;;;7.46;78.98;101474.84;4999467;28;20082;-82
2021/12/31 07:59:50;;;;;;;22.42;13.02;;;;;;;7.53;78.09;101462.84;4998184;28;20026;-82
2021/12/31 08:02:16;;;;;;;21.63;14.45;;;;;;;7.54;78.17;101455.69;4997238;28;20018;-82
2021/12/31 08:04:41;;;;;;;32.17;13.20;;;;;;;7.71;78.33;101474.34;4997568;28;20034;-80
2021/12/31 08:07:07;;;;;;;24.92;13.40;;;;;;;7.78;77.83;101477.53;4997645;28;20089;-82
2021/12/31 08:09:32;;;;;;;24.40;13.65;;;;;;;7.82;77.22;101488.00;4997425;28;20026;-81
2021/12/31 08:11:58;;;;;;;22.02;14.68;;;;;;;7.91;77.29;101478.59;4996820;28;20026;-82
2021/12/31 08:14:23;;;;;;;20.15;13.02;;;;;;;7.97;77.52;101470.22;4996411;28;20029;-81
2021/12/31 08:16:48;;;;;;;21.95;13.55;;;;;;;7.83;77.07;101462.09;4997426;28;20082;-81
2021/12/31 08:19:14;;;;;;;22.63;13.25;;;;;;;7.93;77.13;101453.44;4998067;28;20433;-81
2021/12/31 08:21:40;;;;;;;25.20;14.20;;;;;;;7.87;77.48;101451.13;4998254;28;20388;-81
2021/12/31 08:24:05;;;;;;;23.70;15.10;;;;;;;7.83;76.95;101451.38;4998960;28;20022;-82
2021/12/31 08:26:31;;;;;;;31.75;13.70;;;;;;;7.76;77.68;101445.53;4997776;28;20342;-81
2021/12/31 08:28:56;;;;;;;32.53;15.93;;;;;;;7.64;78.12;101457.75;4999116;28;20018;-82
2021/12/31 08:31:22;;;;;;;39.67;21.52;;;;;;;7.70;78.27;101466.41;4983125;28;20037;-82
2021/12/31 08:33:47;;;;;;;29.55;16.17;;;;;;;7.65;78.05;101451.47;5000344;28;20027;-80
2021/12/31 08:36:13;;;;;;;30.08;17.17;;;;;;;7.80;78.50;101451.56;4997960;28;20030;-81
2021/12/31 08:38:38;;;;;;;27.98;17.10;;;;;;;7.88;78.16;101438.59;5007881;28;20019;-80
2021/12/31 08:41:04;;;;;;;32.78;15.77;;;;;;;7.99;78.07;101452.22;4998135;28;20026;-81
2021/12/31 08:43:29;;;;;;;32.88;17.25;;;;;;;8.01;78.46;101455.69;4997273;28;20026;-80
2021/12/31 08:45:55;;;;;;;31.75;18.50;;;;;;;8.07;77.94;101425.88;4997216;28;20025;-81
2021/12/31 08:48:20;;;;;;;24.55;16.38;;;;;;;8.02;78.12;101430.63;4997030;28;20085;-82
2021/12/31 08:50:46;;;;;;;27.27;17.45;;;;;;;8.04;77.65;101420.69;4998083;28;20445;-81
2021/12/31 08:53:12;;;;;;;27.17;16.08;;;;;;;8.24;78.18;101420.38;4984798;28;20029;-81
2021/12/31 08:55:38;;;;;;;27.90;14.65;;;;;;;8.17;77.25;101425.22;5000049;28;20022;-81
2021/12/31 08:58:04;;;;;;;28.27;15.93;;;;;;;8.28;77.17;101411.25;4997029;28;20408;-81
2021/12/31 09:00:30;;;;;;;30.98;16.73;;;;;;;8.27;77.94;101401.44;4996655;28;20030;-82
2021/12/31 09:02:56;;;;;;;23.45;14.45;;;;;;;8.40;77.36;101397.09;4997042;28;20031;-81
2021/12/31 09:05:22;;;;;;;39.88;16.75;;;;;;;8.58;77.07;101403.16;4996556;28;20034;-81
2021/12/31 09:07:49;;;;;;;29.95;15.20;;;;;;;8.61;76.68;101395.81;4996114;28;20038;-80
2021/12/31 09:10:16;;;;;;;29.90;15.98;;;;;;;8.69;75.79;101396.19;4997344;28;20014;-81
2021/12/31 09:12:44;;;;;;;28.63;16.35;;;;;;;8.63;75.63;101396.56;4998250;28;20106;-81
2021/12/31 09:15:10;;;;;;;37.60;15.55;;;;;;;8.76;75.72;101385.94;4998300;28;20468;-81
2021/12/31 09:17:35;;;;;;;23.67;14.65;;;;;;;8.78;75.69;101362.56;5002438;28;20022;-80
2021/12/31 09:20:03;;;;;;;32.45;16.17;;;;;;;8.93;75.79;101371.50;5003607;28;20100;-80
2021/12/31 09:22:28;;;;;;;28.65;16.08;;;;;;;9.08;75.71;101363.31;5000974;28;20022;-81
2021/12/31 09:24:55;;;;;;;35.83;14.80;;;;;;;9.21;75.51;101358.03;5002253;28;20036;-81
2021/12/31 09:27:21;;;;;;;35.03;15.40;;;;;;;9.21;74.96;101363.41;4996878;28;20022;-82
2021/12/31 09:29:47;;;;;;;29.88;14.50;;;;;;;9.23;74.71;101353.47;4997155;28;20021;-80
2021/12/31 09:32:12;;;;;;;29.08;13.85;;;;;;;9.35;74.71;101357.16;4995505;28;20033;-80
2021/12/31 09:34:42;;;;;;;24.02;13.70;;;;;;;9.46;74.65;101360.88;4996221;28;20026;-81
2021/12/31 09:37:08;;;;;;;30.33;12.52;;;;;;;9.61;74.59;101349.13;4995728;28;20026;-81
2021/12/31 09:39:34;;;;;;;29.13;14.10;;;;;;;9.68;74.22;101353.13;4995288;28;20105;-82
2021/12/31 09:41:59;;;;;;;30.38;12.35;;;;;;;9.69;73.79;101351.31;4977441;28;20495;-82
2021/12/31 09:44:24;;;;;;;25.05;11.75;;;;;;;9.71;73.60;101344.88;4995043;28;20460;-80
2021/12/31 09:46:50;;;;;;;24.45;10.25;;;;;;;9.72;72.72;101335.84;4995526;28;20492;-80
2021/12/31 09:49:15;;;;;;;25.77;12.68;;;;;;;9.84;72.56;101339.56;4994829;28;20528;-80
2021/12/31 09:51:42;;;;;;;30.25;16.95;;;;;;;9.92;71.98;101347.06;4995595;28;20022;-80
2021/12/31 09:54:08;;;;;;;14.73;9.32;;;;;;;9.92;71.56;101330.97;4994717;28;20377;-80
2021/12/31 09:56:39;;;;;;;12.52;7.90;;;;;;;9.98;70.86;101327.84;4995103;28;20464;-80
2021/12/31 09:59:04;;;;;;;11.60;8.00;;;;;;;10.03;71.07;101331.13;4995048;28;20030;-81
2021/12/31 10:01:30;;;;;;;15.25;7.80;;;;;;;10.05;70.79;101337.22;4995538;28;20026;-82
2021/12/31 10:03:56;;;;;;;36.42;9.23;;;;;;;10.06;71.65;101330.91;4995328;28;20022;-81
2021/12/31 10:06:23;;;;;;;20.50;9.65;;;;;;;10.10;70.79;101329.72;4994984;28;20041;-81
2021/12/31 10:08:48;;;;;;;17.08;9.38;;;;;;;10.26;71.34;101331.28;4996781;28;20089;-81
2021/12/31 10:11:22;;;;;;;16.75;9.20;;;;;;;10.27;69.79;101326.78;4994930;28;20460;-81
2021/12/31 10:13:54;;;;;;;17.58;9.15;;;;;;;10.41;69.86;101323.97;4999072;28;20063;-80
2021/12/31 10:16:26;;;;;;;28.15;8.15;;;;;;;10.55;69.53;101323.88;4998285;28;20028;-81
2021/12/31 10:19:09;;;;;;;18.20;9.00;;;;;;;10.58;68.64;101326.34;4995140;28;20142;-82
2021/12/31 10:21:46;;;;;;;19.20;8.20;;;;;;;10.58;68.10;101315.59;4977752;28;20068;-81
2021/12/31 10:24:39;;;;;;;14.13;9.13;;;;;;;10.66;68.79;101301.59;4994737;28;20432;-81
2021/12/31 10:27:12;;;;;;;;;;;;;;;10.65;67.65;101279.22;4991973;28;20047;-81
2021/12/31 10:30:03;;;;;;;282.55;143.30;;;;;;;10.67;67.27;101285.34;4993928;28;19909;-81
2021/12/31 10:32:31;;;;;;;70.95;24.85;;;;;;;10.74;67.94;101281.25;4994607;28;20026;-81
2021/12/31 10:35:19;;;;;;;27.27;10.75;;;;;;;10.87;67.22;101260.56;4993976;28;20396;-80
2021/12/31 10:37:51;;;;;;;14.73;7.57;;;;;;;10.97;66.97;101262.59;4994160;28;20030;-81
2021/12/31 10:40:32;;;;;;;13.38;8.20;;;;;;;11.10;67.27;101274.19;4993655;28;20065;-80
2021/12/31 10:43:16;;;;;;;19.13;8.32;;;;;;;11.20;66.71;101264.44;4994369;28;20026;-80
2021/12/31 10:46:05;;;;;;;46.50;20.85;;;;;;;11.36;66.80;101270.41;4994270;28;20061;-80
2021/12/31 10:48:40;;;;;;;40.13;7.80;;;;;;;11.39;66.56;101248.66;4994302;28;20042;-81
2021/12/31 10:51:08;;;;;;;17.85;8.77;;;;;;;11.47;65.54;101241.69;4994564;28;20035;-79
2021/12/31 10:53:34;;;;;;;13.40;8.02;;;;;;;11.47;65.46;101246.22;4994700;28;20065;-81
2021/12/31 10:56:11;;;;;;;14.18;7.78;;;;;;;11.52;65.38;101252.16;4995021;28;20030;-80
2021/12/31 10:58:39;;;;;;;12.18;7.15;;;;;;;11.62;65.07;101239.69;4994741;28;20033;-79
2021/12/31 11:01:08;;;;;;;35.22;17.95;;;;;;;11.76;64.87;101244.91;4995504;28;20031;-80
2021/12/31 11:03:35;;;;;;;18.67;7.88;;;;;;;11.89;63.64;101258.31;5010627;28;20026;-80
2021/12/31 11:06:03;;;;;;;18.13;6.05;;;;;;;11.91;63.50;101240.19;4995211;28;20029;-79
2021/12/31 11:08:31;;;;;;;10.93;6.18;;;;;;;11.90;63.07;101254.63;4994434;28;20033;-81
2021/12/31 11:10:57;;;;;;;13.07;6.82;;;;;;;12.02;62.85;101242.91;4993907;28;20042;-81
2021/12/31 11:13:28;;;;;;;21.02;6.53;;;;;;;12.10;62.61;101228.84;4994154;28;20030;-80
2021/12/31 11:15:55;;;;;;;10.65;5.88;;;;;;;12.20;62.57;101213.66;4994573;28;20109;-80
2021/12/31 11:18:23;;;;;;;22.30;6.95;;;;;;;12.33;62.07;101219.78;4994051;28;20030;-80
2021/12/31 11:20:50;;;;;;;17.05;5.63;;;;;;;12.52;62.23;101228.13;4993443;28;20019;-79
2021/12/31 11:23:16;;;;;;;14.98;7.95;;;;;;;12.64;60.72;101223.59;4993784;28;20113;-79